TimeCST,TemperatureF,Dew PointF,Humidity,Sea Level PressureIn,VisibilityMPH,Wind Direction,Wind SpeedMPH,Gust SpeedMPH,PrecipitationIn,Events,Conditions,WindDirDegrees,DateUTC
12:18 AM,17.6,14.0,86,30.26,0.8,NNE,15.0,-,0.00,Snow,Light Snow,20,2013-12-06 06:18:00
12:53 AM,17.1,12.9,84,30.32,1.0,NNE,16.1,-,0.00,Snow,Light Snow,30,2013-12-06 06:53:00
1:07 AM,17.6,14.0,86,30.25,0.8,NNE,17.3,-,0.00,Snow,Light Snow,30,2013-12-06 07:07:00
1:53 AM,17.1,12.9,84,30.34,1.0,NNE,17.3,-,0.00,Snow,Light Snow,30,2013-12-06 07:53:00
2:21 AM,15.8,12.2,86,30.26,0.8,NNE,15.0,-,0.00,Snow,Light Snow,20,2013-12-06 08:21:00
2:38 AM,15.8,12.2,86,30.27,1.0,NNE,18.4,-,0.00,Snow,Light Snow,20,2013-12-06 08:38:00
2:53 AM,16.0,12.9,88,30.36,0.8,NNE,18.4,-,0.00,Snow,Light Snow,20,2013-12-06 08:53:00
3:38 AM,15.8,12.2,86,30.25,0.8,NNE,19.6,-,0.00,,Mist,20,2013-12-06 09:38:00
3:48 AM,15.8,12.2,86,30.26,1.0,NNE,17.3,-,0.00,,Mist,20,2013-12-06 09:48:00
3:49 AM,16.0,12.9,88,30.33,1.0,NNE,17.3,-,0.00,,Mist,20,2013-12-06 09:49:00
4:07 AM,15.8,12.2,86,30.27,1.8,NNE,18.4,-,0.01,,Overcast,30,2013-12-06 10:07:00
4:16 AM,15.8,12.2,86,30.28,2.5,NNE,16.1,-,0.01,,Overcast,30,2013-12-06 10:16:00
4:24 AM,15.8,12.2,86,30.28,4.0,NNE,17.3,-,0.01,,Overcast,20,2013-12-06 10:24:00
4:30 AM,15.8,12.2,86,30.29,2.5,NNE,16.1,-,0.01,,Overcast,20,2013-12-06 10:30:00
4:40 AM,15.8,12.2,86,30.28,1.2,NNE,16.1,-,0.01,,Overcast,30,2013-12-06 10:40:00
4:53 AM,16.0,12.0,84,30.34,1.0,NNE,16.1,-,0.01,,Mist,20,2013-12-06 10:53:00
5:01 AM,15.8,12.2,86,30.28,1.2,NNE,16.1,-,N/A,,Overcast,20,2013-12-06 11:01:00
5:53 AM,16.0,12.0,84,30.37,2.0,NNE,15.0,-,N/A,,Overcast,30,2013-12-06 11:53:00
6:05 AM,15.8,12.2,86,30.31,1.5,NNE,12.7,-,N/A,,Overcast,20,2013-12-06 12:05:00
6:22 AM,15.8,12.2,86,30.30,2.5,NNE,16.1,-,N/A,,Overcast,30,2013-12-06 12:22:00
6:29 AM,15.8,12.2,86,30.32,4.0,NNE,16.1,-,N/A,,Overcast,20,2013-12-06 12:29:00
6:53 AM,16.0,10.9,81,30.38,9.0,NNE,16.1,-,N/A,,Overcast,30,2013-12-06 12:53:00
7:53 AM,16.0,10.9,81,30.44,10.0,NNE,16.1,-,N/A,,Overcast,20,2013-12-06 13:53:00
8:53 AM,17.1,10.0,74,30.44,10.0,NNE,19.6,-,N/A,,Overcast,20,2013-12-06 14:53:00
9:53 AM,17.1,9.0,71,30.48,10.0,North,18.4,-,N/A,,Overcast,10,2013-12-06 15:53:00
10:53 AM,17.1,8.1,68,30.49,10.0,NNE,17.3,-,N/A,,Mostly Cloudy,20,2013-12-06 16:53:00
11:53 AM,19.9,9.0,62,30.50,10.0,NNE,16.1,-,N/A,,Clear,20,2013-12-06 17:53:00
12:53 PM,21.9,10.0,60,30.48,10.0,NNE,16.1,-,N/A,,Clear,20,2013-12-06 18:53:00
1:53 PM,21.9,10.9,63,30.47,10.0,North,13.8,-,N/A,,Clear,10,2013-12-06 19:53:00
2:53 PM,21.0,10.0,63,30.48,10.0,NNE,13.8,-,N/A,,Clear,30,2013-12-06 20:53:00
3:53 PM,21.0,9.0,60,30.49,10.0,NNE,12.7,-,N/A,,Clear,30,2013-12-06 21:53:00
4:53 PM,18.0,7.0,62,30.51,10.0,NNE,10.4,-,N/A,,Clear,30,2013-12-06 22:53:00
5:53 PM,12.9,3.0,65,30.53,10.0,NNE,8.1,-,N/A,,Clear,30,2013-12-06 23:53:00
6:53 PM,10.9,1.9,67,30.55,10.0,North,6.9,-,N/A,,Clear,10,2013-12-07 00:53:00
7:53 PM,9.0,1.0,70,30.58,10.0,North,8.1,-,N/A,,Clear,10,2013-12-07 01:53:00
8:53 PM,10.0,1.0,67,30.58,10.0,NNE,10.4,-,N/A,,Clear,30,2013-12-07 02:53:00
9:53 PM,8.1,-0.9,67,30.61,10.0,NNE,9.2,-,N/A,,Clear,30,2013-12-07 03:53:00
10:53 PM,7.0,-0.9,70,30.63,10.0,NNE,11.5,-,N/A,,Clear,30,2013-12-07 04:53:00
11:53 PM,8.1,-0.9,67,30.65,10.0,NNE,10.4,-,N/A,,Clear,30,2013-12-07 05:53:00